sensor_id;sensor_type;location;lat;lon;timestamp;temperature;humidity
15844;DHT22;50807;52.436;13.346;2023-03-23T00:00:13;16.10;76.10
15844;DHT22;50807;52.436;13.346;2023-03-23T00:00:45;16.10;76.20
15844;DHT22;50807;52.436;13.346;2023-03-23T00:01:18;16.10;76.20
15844;DHT22;50807;52.436;13.346;2023-03-23T00:01:52;16.10;76.30
15844;DHT22;50807;52.436;13.346;2023-03-23T00:02:24;16.10;76.20
15844;DHT22;50807;52.436;13.346;2023-03-23T00:02:55;16.10;76.40
15844;DHT22;50807;52.436;13.346;2023-03-23T00:03:27;16.10;76.40
15844;DHT22;50807;52.436;13.346;2023-03-23T00:03:59;16.10;76.40
15844;DHT22;50807;52.436;13.346;2023-03-23T00:04:30;16.10;76.40
15844;DHT22;50807;52.436;13.346;2023-03-23T00:05:02;16.00;76.40
15844;DHT22;50807;52.436;13.346;2023-03-23T00:05:33;16.10;76.50
15844;DHT22;50807;52.436;13.346;2023-03-23T00:06:08;16.10;76.50
15844;DHT22;50807;52.436;13.346;2023-03-23T00:06:39;16.00;76.50
15844;DHT22;50807;52.436;13.346;2023-03-23T00:07:11;16.00;76.50
15844;DHT22;50807;52.436;13.346;2023-03-23T00:07:43;16.00;76.60
15844;DHT22;50807;52.436;13.346;2023-03-23T00:08:16;16.00;76.60
15844;DHT22;50807;52.436;13.346;2023-03-23T00:08:48;16.00;76.70
15844;DHT22;50807;52.436;13.346;2023-03-23T00:09:26;16.00;76.80
15844;DHT22;50807;52.436;13.346;2023-03-23T00:09:57;16.00;76.70
15844;DHT22;50807;52.436;13.346;2023-03-23T00:10:28;16.00;76.80
15844;DHT22;50807;52.436;13.346;2023-03-23T00:11:03;16.00;76.80
15844;DHT22;50807;52.436;13.346;2023-03-23T00:11:34;16.00;76.80
15844;DHT22;50807;52.436;13.346;2023-03-23T00:12:06;16.00;76.80
15844;DHT22;50807;52.436;13.346;2023-03-23T00:12:38;16.00;76.90
15844;DHT22;50807;52.436;13.346;2023-03-23T00:13:12;16.00;76.90
15844;DHT22;50807;52.436;13.346;2023-03-23T00:13:46;16.00;77.00
15844;DHT22;50807;52.436;13.346;2023-03-23T00:14:21;16.00;77.10
15844;DHT22;50807;52.436;13.346;2023-03-23T00:14:52;16.00;77.00
15844;DHT22;50807;52.436;13.346;2023-03-23T00:15:24;16.00;77.00
15844;DHT22;50807;52.436;13.346;2023-03-23T00:15:56;15.90;77.00
15844;DHT22;50807;52.436;13.346;2023-03-23T00:16:29;15.90;77.80
15844;DHT22;50807;52.436;13.346;2023-03-23T00:17:02;15.90;77.20
15844;DHT22;50807;52.436;13.346;2023-03-23T00:17:34;15.90;77.20
15844;DHT22;50807;52.436;13.346;2023-03-23T00:18:05;15.90;77.20
15844;DHT22;50807;52.436;13.346;2023-03-23T00:18:36;15.90;77.20
15844;DHT22;50807;52.436;13.346;2023-03-23T00:19:10;15.90;77.30
15844;DHT22;50807;52.436;13.346;2023-03-23T00:19:43;15.90;77.40
15844;DHT22;50807;52.436;13.346;2023-03-23T00:20:17;15.90;77.40
15844;DHT22;50807;52.436;13.346;2023-03-23T00:20:50;15.90;77.40
15844;DHT22;50807;52.436;13.346;2023-03-23T00:21:24;15.80;77.40
15844;DHT22;50807;52.436;13.346;2023-03-23T00:22:03;15.90;77.60
15844;DHT22;50807;52.436;13.346;2023-03-23T00:22:37;15.90;77.50
15844;DHT22;50807;52.436;13.346;2023-03-23T00:23:08;15.90;77.50
15844;DHT22;50807;52.436;13.346;2023-03-23T00:23:39;15.90;77.50
15844;DHT22;50807;52.436;13.346;2023-03-23T00:24:16;15.80;78.20
15844;DHT22;50807;52.436;13.346;2023-03-23T00:24:48;15.90;77.60
15844;DHT22;50807;52.436;13.346;2023-03-23T00:25:21;15.90;77.60
15844;DHT22;50807;52.436;13.346;2023-03-23T00:25:53;15.80;77.60
15844;DHT22;50807;52.436;13.346;2023-03-23T00:26:27;15.80;77.70
15844;DHT22;50807;52.436;13.346;2023-03-23T00:26:59;15.80;77.70
15844;DHT22;50807;52.436;13.346;2023-03-23T00:27:30;15.80;77.80
15844;DHT22;50807;52.436;13.346;2023-03-23T00:28:03;15.80;77.80
15844;DHT22;50807;52.436;13.346;2023-03-23T00:28:34;15.80;77.90
15844;DHT22;50807;52.436;13.346;2023-03-23T00:29:07;15.80;77.90
15844;DHT22;50807;52.436;13.346;2023-03-23T00:29:44;15.80;78.10
15844;DHT22;50807;52.436;13.346;2023-03-23T00:30:15;15.80;78.10
15844;DHT22;50807;52.436;13.346;2023-03-23T00:30:46;15.80;78.10
15844;DHT22;50807;52.436;13.346;2023-03-23T00:31:17;15.80;78.10
15844;DHT22;50807;52.436;13.346;2023-03-23T00:31:49;15.80;78.10
15844;DHT22;50807;52.436;13.346;2023-03-23T00:32:22;15.80;78.10
15844;DHT22;50807;52.436;13.346;2023-03-23T00:32:57;15.80;78.20
15844;DHT22;50807;52.436;13.346;2023-03-23T00:33:30;15.80;78.10
15844;DHT22;50807;52.436;13.346;2023-03-23T00:34:09;15.80;78.20
15844;DHT22;50807;52.436;13.346;2023-03-23T00:34:42;15.80;78.20
15844;DHT22;50807;52.436;13.346;2023-03-23T00:35:14;15.80;78.20
15844;DHT22;50807;52.436;13.346;2023-03-23T00:35:46;15.80;78.20
15844;DHT22;50807;52.436;13.346;2023-03-23T00:36:17;15.80;78.20
15844;DHT22;50807;52.436;13.346;2023-03-23T00:36:50;15.80;78.30
15844;DHT22;50807;52.436;13.346;2023-03-23T00:37:23;15.80;78.40
15844;DHT22;50807;52.436;13.346;2023-03-23T00:37:55;15.80;78.40
15844;DHT22;50807;52.436;13.346;2023-03-23T00:38:26;15.80;78.40
15844;DHT22;50807;52.436;13.346;2023-03-23T00:38:58;15.80;78.50
15844;DHT22;50807;52.436;13.346;2023-03-23T00:39:29;15.80;78.50
15844;DHT22;50807;52.436;13.346;2023-03-23T00:40:00;15.80;78.50
15844;DHT22;50807;52.436;13.346;2023-03-23T00:40:36;15.80;78.50
15844;DHT22;50807;52.436;13.346;2023-03-23T00:41:07;15.80;78.60
15844;DHT22;50807;52.436;13.346;2023-03-23T00:41:41;15.80;78.60
15844;DHT22;50807;52.436;13.346;2023-03-23T00:42:15;15.80;78.60
15844;DHT22;50807;52.436;13.346;2023-03-23T00:42:46;15.70;78.60
15844;DHT22;50807;52.436;13.346;2023-03-23T00:43:19;15.70;78.60
15844;DHT22;50807;52.436;13.346;2023-03-23T00:43:55;15.70;78.70
15844;DHT22;50807;52.436;13.346;2023-03-23T00:44:30;15.70;78.70
15844;DHT22;50807;52.436;13.346;2023-03-23T00:45:05;15.80;78.80
15844;DHT22;50807;52.436;13.346;2023-03-23T00:45:40;15.80;78.80
15844;DHT22;50807;52.436;13.346;2023-03-23T00:46:11;15.70;78.70
15844;DHT22;50807;52.436;13.346;2023-03-23T00:46:43;15.70;78.70
15844;DHT22;50807;52.436;13.346;2023-03-23T00:47:16;15.80;78.80
15844;DHT22;50807;52.436;13.346;2023-03-23T00:47:47;15.80;78.90
15844;DHT22;50807;52.436;13.346;2023-03-23T00:48:22;15.70;78.90
15844;DHT22;50807;52.436;13.346;2023-03-23T00:48:54;15.70;78.90
15844;DHT22;50807;52.436;13.346;2023-03-23T00:49:27;15.70;78.90
15844;DHT22;50807;52.436;13.346;2023-03-23T00:49:58;15.70;78.90
15844;DHT22;50807;52.436;13.346;2023-03-23T00:50:29;15.70;78.90
15844;DHT22;50807;52.436;13.346;2023-03-23T00:51:00;15.70;78.90
15844;DHT22;50807;52.436;13.346;2023-03-23T00:51:36;15.70;79.00
15844;DHT22;50807;52.436;13.346;2023-03-23T00:52:09;15.70;78.90
15844;DHT22;50807;52.436;13.346;2023-03-23T00:52:40;15.70;79.00
15844;DHT22;50807;52.436;13.346;2023-03-23T00:53:12;15.70;78.90
15844;DHT22;50807;52.436;13.346;2023-03-23T00:53:43;15.70;79.10
15844;DHT22;50807;52.436;13.346;2023-03-23T00:54:15;15.70;79.10
15844;DHT22;50807;52.436;13.346;2023-03-23T00:54:47;15.70;79.10
15844;DHT22;50807;52.436;13.346;2023-03-23T00:55:18;15.70;79.20
15844;DHT22;50807;52.436;13.346;2023-03-23T00:55:49;15.70;79.20
15844;DHT22;50807;52.436;13.346;2023-03-23T00:56:21;15.70;79.20
15844;DHT22;50807;52.436;13.346;2023-03-23T00:56:54;15.70;79.20
15844;DHT22;50807;52.436;13.346;2023-03-23T00:57:25;15.70;79.30
15844;DHT22;50807;52.436;13.346;2023-03-23T00:57:57;15.70;79.30
15844;DHT22;50807;52.436;13.346;2023-03-23T00:58:28;15.70;79.30
15844;DHT22;50807;52.436;13.346;2023-03-23T00:58:59;15.70;79.30
15844;DHT22;50807;52.436;13.346;2023-03-23T00:59:32;15.70;79.40
15844;DHT22;50807;52.436;13.346;2023-03-23T01:00:04;15.60;79.30
15844;DHT22;50807;52.436;13.346;2023-03-23T01:00:39;15.70;79.40
15844;DHT22;50807;52.436;13.346;2023-03-23T01:01:11;15.70;79.40
15844;DHT22;50807;52.436;13.346;2023-03-23T01:01:42;15.70;79.40
15844;DHT22;50807;52.436;13.346;2023-03-23T01:02:13;15.60;79.40
15844;DHT22;50807;52.436;13.346;2023-03-23T01:02:46;15.60;79.40
15844;DHT22;50807;52.436;13.346;2023-03-23T01:03:18;15.60;79.50
15844;DHT22;50807;52.436;13.346;2023-03-23T01:03:49;15.60;79.50
15844;DHT22;50807;52.436;13.346;2023-03-23T01:04:20;15.60;80.20
15844;DHT22;50807;52.436;13.346;2023-03-23T01:04:52;15.60;80.30
15844;DHT22;50807;52.436;13.346;2023-03-23T01:05:23;15.60;79.60
15844;DHT22;50807;52.436;13.346;2023-03-23T01:05:54;15.60;79.60
15844;DHT22;50807;52.436;13.346;2023-03-23T01:06:27;15.60;79.60
15844;DHT22;50807;52.436;13.346;2023-03-23T01:06:58;15.60;79.60
15844;DHT22;50807;52.436;13.346;2023-03-23T01:07:31;15.60;79.60
15844;DHT22;50807;52.436;13.346;2023-03-23T01:08:03;15.60;79.70
15844;DHT22;50807;52.436;13.346;2023-03-23T01:08:36;15.60;79.80
15844;DHT22;50807;52.436;13.346;2023-03-23T01:09:11;15.60;79.70
15844;DHT22;50807;52.436;13.346;2023-03-23T01:09:47;15.60;79.80
15844;DHT22;50807;52.436;13.346;2023-03-23T01:10:18;15.60;79.80
15844;DHT22;50807;52.436;13.346;2023-03-23T01:10:50;15.60;79.70
15844;DHT22;50807;52.436;13.346;2023-03-23T01:11:22;15.60;79.80
15844;DHT22;50807;52.436;13.346;2023-03-23T01:11:54;15.60;79.80
15844;DHT22;50807;52.436;13.346;2023-03-23T01:12:26;15.50;79.80
15844;DHT22;50807;52.436;13.346;2023-03-23T01:12:58;15.50;79.70
15844;DHT22;50807;52.436;13.346;2023-03-23T01:13:30;15.50;79.80
15844;DHT22;50807;52.436;13.346;2023-03-23T01:14:02;15.50;79.80
15844;DHT22;50807;52.436;13.346;2023-03-23T01:14:35;15.60;79.90
15844;DHT22;50807;52.436;13.346;2023-03-23T01:15:07;15.50;79.90
15844;DHT22;50807;52.436;13.346;2023-03-23T01:15:39;15.50;80.00
15844;DHT22;50807;52.436;13.346;2023-03-23T01:16:12;15.50;80.00
15844;DHT22;50807;52.436;13.346;2023-03-23T01:16:43;15.50;80.00
15844;DHT22;50807;52.436;13.346;2023-03-23T01:17:14;15.50;80.00
15844;DHT22;50807;52.436;13.346;2023-03-23T01:17:47;15.50;80.80
15844;DHT22;50807;52.436;13.346;2023-03-23T01:18:18;15.50;80.20
15844;DHT22;50807;52.436;13.346;2023-03-23T01:18:49;15.50;80.20
15844;DHT22;50807;52.436;13.346;2023-03-23T01:19:21;15.50;80.20
15844;DHT22;50807;52.436;13.346;2023-03-23T01:19:52;15.50;80.20
15844;DHT22;50807;52.436;13.346;2023-03-23T01:20:24;15.50;80.20
15844;DHT22;50807;52.436;13.346;2023-03-23T01:21:03;15.50;80.30
15844;DHT22;50807;52.436;13.346;2023-03-23T01:21:35;15.50;80.40
15844;DHT22;50807;52.436;13.346;2023-03-23T01:22:06;15.40;80.30
15844;DHT22;50807;52.436;13.346;2023-03-23T01:22:39;15.50;80.40
15844;DHT22;50807;52.436;13.346;2023-03-23T01:23:10;15.50;81.10
15844;DHT22;50807;52.436;13.346;2023-03-23T01:23:42;15.50;80.40
15844;DHT22;50807;52.436;13.346;2023-03-23T01:24:15;15.40;80.40
15844;DHT22;50807;52.436;13.346;2023-03-23T01:24:45;15.40;80.40
15844;DHT22;50807;52.436;13.346;2023-03-23T01:25:16;15.40;80.40
15844;DHT22;50807;52.436;13.346;2023-03-23T01:25:48;15.40;80.60
15844;DHT22;50807;52.436;13.346;2023-03-23T01:26:23;15.40;80.60
15844;DHT22;50807;52.436;13.346;2023-03-23T01:26:55;15.40;80.60
15844;DHT22;50807;52.436;13.346;2023-03-23T01:27:27;15.40;80.60
15844;DHT22;50807;52.436;13.346;2023-03-23T01:27:58;15.40;80.60
15844;DHT22;50807;52.436;13.346;2023-03-23T01:28:29;15.40;80.70
15844;DHT22;50807;52.436;13.346;2023-03-23T01:29:00;15.40;80.70
15844;DHT22;50807;52.436;13.346;2023-03-23T01:29:32;15.40;80.70
15844;DHT22;50807;52.436;13.346;2023-03-23T01:30:06;15.40;80.80
15844;DHT22;50807;52.436;13.346;2023-03-23T01:30:38;15.40;80.90
15844;DHT22;50807;52.436;13.346;2023-03-23T01:31:12;15.40;80.90
15844;DHT22;50807;52.436;13.346;2023-03-23T01:31:44;15.40;80.90
15844;DHT22;50807;52.436;13.346;2023-03-23T01:32:16;15.40;80.90
15844;DHT22;50807;52.436;13.346;2023-03-23T01:32:47;15.40;80.90
15844;DHT22;50807;52.436;13.346;2023-03-23T01:33:18;15.40;80.90
15844;DHT22;50807;52.436;13.346;2023-03-23T01:33:50;15.40;81.00
15844;DHT22;50807;52.436;13.346;2023-03-23T01:34:21;15.40;81.10
15844;DHT22;50807;52.436;13.346;2023-03-23T01:34:52;15.40;81.00
15844;DHT22;50807;52.436;13.346;2023-03-23T01:35:24;15.40;81.10
15844;DHT22;50807;52.436;13.346;2023-03-23T01:35:55;15.30;81.00
15844;DHT22;50807;52.436;13.346;2023-03-23T01:36:28;15.40;81.20
15844;DHT22;50807;52.436;13.346;2023-03-23T01:37:03;15.40;81.20
15844;DHT22;50807;52.436;13.346;2023-03-23T01:37:33;15.30;81.80
15844;DHT22;50807;52.436;13.346;2023-03-23T01:38:06;15.30;81.10
15844;DHT22;50807;52.436;13.346;2023-03-23T01:38:38;15.40;81.20
15844;DHT22;50807;52.436;13.346;2023-03-23T01:39:09;15.30;81.20
15844;DHT22;50807;52.436;13.346;2023-03-23T01:39:40;15.30;81.20
15844;DHT22;50807;52.436;13.346;2023-03-23T01:40:12;15.30;81.30
15844;DHT22;50807;52.436;13.346;2023-03-23T01:40:45;15.30;81.30
15844;DHT22;50807;52.436;13.346;2023-03-23T01:41:18;15.30;81.30
15844;DHT22;50807;52.436;13.346;2023-03-23T01:41:50;15.30;81.40
15844;DHT22;50807;52.436;13.346;2023-03-23T01:42:22;15.30;81.40
15844;DHT22;50807;52.436;13.346;2023-03-23T01:42:53;15.30;81.50
15844;DHT22;50807;52.436;13.346;2023-03-23T01:43:25;15.30;81.50
15844;DHT22;50807;52.436;13.346;2023-03-23T01:43:58;15.30;81.60
15844;DHT22;50807;52.436;13.346;2023-03-23T01:45:59;15.30;81.80
15844;DHT22;50807;52.436;13.346;2023-03-23T01:46:31;15.30;81.40
15844;DHT22;50807;52.436;13.346;2023-03-23T01:47:03;15.30;81.50
15844;DHT22;50807;52.436;13.346;2023-03-23T01:47:35;15.30;81.50
15844;DHT22;50807;52.436;13.346;2023-03-23T01:48:10;15.30;81.50
15844;DHT22;50807;52.436;13.346;2023-03-23T01:48:46;15.20;81.60
15844;DHT22;50807;52.436;13.346;2023-03-23T01:49:23;15.30;81.60
15844;DHT22;50807;52.436;13.346;2023-03-23T01:49:57;15.30;81.80
15844;DHT22;50807;52.436;13.346;2023-03-23T01:50:30;15.20;81.60
15844;DHT22;50807;52.436;13.346;2023-03-23T01:51:09;15.20;81.70
15844;DHT22;50807;52.436;13.346;2023-03-23T01:51:49;15.30;81.80
15844;DHT22;50807;52.436;13.346;2023-03-23T01:52:25;15.20;81.80
15844;DHT22;50807;52.436;13.346;2023-03-23T01:53:00;15.20;81.90
15844;DHT22;50807;52.436;13.346;2023-03-23T01:53:37;15.20;81.80
15844;DHT22;50807;52.436;13.346;2023-03-23T01:54:13;15.20;82.00
15844;DHT22;50807;52.436;13.346;2023-03-23T01:54:51;15.20;82.00
15844;DHT22;50807;52.436;13.346;2023-03-23T01:55:26;15.20;82.00
15844;DHT22;50807;52.436;13.346;2023-03-23T01:55:59;15.20;82.10
15844;DHT22;50807;52.436;13.346;2023-03-23T01:56:36;15.20;82.10
15844;DHT22;50807;52.436;13.346;2023-03-23T01:57:13;15.20;82.10
15844;DHT22;50807;52.436;13.346;2023-03-23T01:57:47;15.20;82.10
15844;DHT22;50807;52.436;13.346;2023-03-23T01:58:23;15.20;82.20
15844;DHT22;50807;52.436;13.346;2023-03-23T01:58:57;15.20;82.20
15844;DHT22;50807;52.436;13.346;2023-03-23T01:59:30;15.20;82.20
15844;DHT22;50807;52.436;13.346;2023-03-23T02:00:06;15.20;82.30
15844;DHT22;50807;52.436;13.346;2023-03-23T02:00:46;15.20;82.40
15844;DHT22;50807;52.436;13.346;2023-03-23T02:01:19;15.20;82.40
15844;DHT22;50807;52.436;13.346;2023-03-23T02:01:53;15.20;82.40
15844;DHT22;50807;52.436;13.346;2023-03-23T02:02:26;15.20;82.40
15844;DHT22;50807;52.436;13.346;2023-03-23T02:03:00;15.20;82.40
15844;DHT22;50807;52.436;13.346;2023-03-23T02:03:32;15.20;82.50
15844;DHT22;50807;52.436;13.346;2023-03-23T02:04:06;15.20;82.50
15844;DHT22;50807;52.436;13.346;2023-03-23T02:04:39;15.20;82.50
15844;DHT22;50807;52.436;13.346;2023-03-23T02:05:14;15.20;82.60
15844;DHT22;50807;52.436;13.346;2023-03-23T02:05:51;15.20;82.60
15844;DHT22;50807;52.436;13.346;2023-03-23T02:06:23;15.20;82.60
15844;DHT22;50807;52.436;13.346;2023-03-23T02:06:56;15.20;82.60
15844;DHT22;50807;52.436;13.346;2023-03-23T02:07:28;15.20;82.60
15844;DHT22;50807;52.436;13.346;2023-03-23T02:08:00;15.20;82.60
15844;DHT22;50807;52.436;13.346;2023-03-23T02:08:36;15.20;82.70
15844;DHT22;50807;52.436;13.346;2023-03-23T02:09:07;15.20;82.70
15844;DHT22;50807;52.436;13.346;2023-03-23T02:09:38;15.20;82.70
15844;DHT22;50807;52.436;13.346;2023-03-23T02:10:10;15.20;82.70
15844;DHT22;50807;52.436;13.346;2023-03-23T02:10:41;15.20;82.80
15844;DHT22;50807;52.436;13.346;2023-03-23T02:11:13;15.20;82.80
15844;DHT22;50807;52.436;13.346;2023-03-23T02:11:47;15.20;82.90
15844;DHT22;50807;52.436;13.346;2023-03-23T02:12:20;15.20;82.90
15844;DHT22;50807;52.436;13.346;2023-03-23T02:12:51;15.20;82.90
15844;DHT22;50807;52.436;13.346;2023-03-23T02:13:24;15.20;82.90
15844;DHT22;50807;52.436;13.346;2023-03-23T02:13:56;15.20;82.90
15844;DHT22;50807;52.436;13.346;2023-03-23T02:14:28;15.20;82.90
15844;DHT22;50807;52.436;13.346;2023-03-23T02:15:02;15.20;82.90
15844;DHT22;50807;52.436;13.346;2023-03-23T02:15:43;15.20;82.90
15844;DHT22;50807;52.436;13.346;2023-03-23T02:16:27;15.20;82.90
15844;DHT22;50807;52.436;13.346;2023-03-23T02:17:07;15.20;82.90
15844;DHT22;50807;52.436;13.346;2023-03-23T02:17:47;15.20;82.90
15844;DHT22;50807;52.436;13.346;2023-03-23T02:18:35;15.20;82.90
15844;DHT22;50807;52.436;13.346;2023-03-23T02:19:39;15.20;82.90
15844;DHT22;50807;52.436;13.346;2023-03-23T02:20:37;15.20;82.90
15844;DHT22;50807;52.436;13.346;2023-03-23T02:21:47;15.30;82.80
15844;DHT22;50807;52.436;13.346;2023-03-23T02:23:00;15.30;82.70
15844;DHT22;50807;52.436;13.346;2023-03-23T02:24:07;15.30;82.60
15844;DHT22;50807;52.436;13.346;2023-03-23T02:25:12;15.30;82.40
15844;DHT22;50807;52.436;13.346;2023-03-23T02:26:08;15.40;82.50
15844;DHT22;50807;52.436;13.346;2023-03-23T02:26:55;15.40;82.30
15844;DHT22;50807;52.436;13.346;2023-03-23T02:27:57;15.40;82.30
15844;DHT22;50807;52.436;13.346;2023-03-23T02:30:03;15.40;82.40
15844;DHT22;50807;52.436;13.346;2023-03-23T02:31:02;15.40;82.30
15844;DHT22;50807;52.436;13.346;2023-03-23T02:32:08;15.40;82.30
15844;DHT22;50807;52.436;13.346;2023-03-23T02:34:15;15.40;82.40
15844;DHT22;50807;52.436;13.346;2023-03-23T02:34:49;15.50;82.30
15844;DHT22;50807;52.436;13.346;2023-03-23T02:35:28;15.40;82.20
15844;DHT22;50807;52.436;13.346;2023-03-23T02:36:12;15.40;82.30
15844;DHT22;50807;52.436;13.346;2023-03-23T02:36:53;15.40;82.40
15844;DHT22;50807;52.436;13.346;2023-03-23T02:37:36;15.40;82.50
15844;DHT22;50807;52.436;13.346;2023-03-23T02:38:13;15.40;82.50
15844;DHT22;50807;52.436;13.346;2023-03-23T02:38:54;15.40;82.60
15844;DHT22;50807;52.436;13.346;2023-03-23T02:39:31;15.40;82.70
15844;DHT22;50807;52.436;13.346;2023-03-23T02:40:08;15.40;82.70
15844;DHT22;50807;52.436;13.346;2023-03-23T02:40:45;15.40;82.80
15844;DHT22;50807;52.436;13.346;2023-03-23T02:41:22;15.40;82.80
15844;DHT22;50807;52.436;13.346;2023-03-23T02:42:01;15.40;82.90
15844;DHT22;50807;52.436;13.346;2023-03-23T02:42:37;15.40;83.00
15844;DHT22;50807;52.436;13.346;2023-03-23T02:43:13;15.40;83.00
15844;DHT22;50807;52.436;13.346;2023-03-23T02:43:47;15.40;83.00
15844;DHT22;50807;52.436;13.346;2023-03-23T02:44:21;15.40;83.10
15844;DHT22;50807;52.436;13.346;2023-03-23T02:44:54;15.40;83.10
15844;DHT22;50807;52.436;13.346;2023-03-23T02:45:29;15.40;83.20
15844;DHT22;50807;52.436;13.346;2023-03-23T02:46:05;15.40;83.30
15844;DHT22;50807;52.436;13.346;2023-03-23T02:46:40;15.40;83.40
15844;DHT22;50807;52.436;13.346;2023-03-23T02:47:15;15.40;83.50
15844;DHT22;50807;52.436;13.346;2023-03-23T02:47:51;15.40;83.60
15844;DHT22;50807;52.436;13.346;2023-03-23T02:48:28;15.50;83.70
15844;DHT22;50807;52.436;13.346;2023-03-23T02:49:02;15.40;83.70
15844;DHT22;50807;52.436;13.346;2023-03-23T02:49:40;15.40;83.80
15844;DHT22;50807;52.436;13.346;2023-03-23T02:50:16;15.50;84.10
15844;DHT22;50807;52.436;13.346;2023-03-23T02:50:52;15.50;84.10
15844;DHT22;50807;52.436;13.346;2023-03-23T02:51:24;15.40;84.00
15844;DHT22;50807;52.436;13.346;2023-03-23T02:51:59;15.50;84.20
15844;DHT22;50807;52.436;13.346;2023-03-23T02:52:33;15.40;84.10
15844;DHT22;50807;52.436;13.346;2023-03-23T02:53:09;15.40;84.20
15844;DHT22;50807;52.436;13.346;2023-03-23T02:53:44;15.40;84.30
15844;DHT22;50807;52.436;13.346;2023-03-23T02:54:18;15.40;84.30
15844;DHT22;50807;52.436;13.346;2023-03-23T02:54:53;15.40;84.40
15844;DHT22;50807;52.436;13.346;2023-03-23T02:55:27;15.40;84.40
15844;DHT22;50807;52.436;13.346;2023-03-23T02:56:01;15.40;84.50
15844;DHT22;50807;52.436;13.346;2023-03-23T02:56:35;15.40;84.60
15844;DHT22;50807;52.436;13.346;2023-03-23T02:57:06;15.40;84.50
15844;DHT22;50807;52.436;13.346;2023-03-23T02:57:38;15.40;84.60
15844;DHT22;50807;52.436;13.346;2023-03-23T02:58:11;15.40;85.50
15844;DHT22;50807;52.436;13.346;2023-03-23T02:58:42;15.40;84.80
15844;DHT22;50807;52.436;13.346;2023-03-23T02:59:13;15.40;84.80
15844;DHT22;50807;52.436;13.346;2023-03-23T02:59:45;15.40;84.90
15844;DHT22;50807;52.436;13.346;2023-03-23T03:00:17;15.40;85.10
15844;DHT22;50807;52.436;13.346;2023-03-23T03:00:49;15.40;85.20
15844;DHT22;50807;52.436;13.346;2023-03-23T03:01:50;15.40;85.20
15844;DHT22;50807;52.436;13.346;2023-03-23T03:02:28;15.40;85.40
15844;DHT22;50807;52.436;13.346;2023-03-23T03:03:04;15.40;85.20
15844;DHT22;50807;52.436;13.346;2023-03-23T03:03:38;15.40;85.20
15844;DHT22;50807;52.436;13.346;2023-03-23T03:04:12;15.40;85.20
15844;DHT22;50807;52.436;13.346;2023-03-23T03:04:52;15.40;85.40
15844;DHT22;50807;52.436;13.346;2023-03-23T03:05:36;15.40;85.50
15844;DHT22;50807;52.436;13.346;2023-03-23T03:06:21;15.40;85.50
15844;DHT22;50807;52.436;13.346;2023-03-23T03:07:27;15.40;85.40
15844;DHT22;50807;52.436;13.346;2023-03-23T03:08:14;15.50;85.60
15844;DHT22;50807;52.436;13.346;2023-03-23T03:08:52;15.50;85.50
15844;DHT22;50807;52.436;13.346;2023-03-23T03:09:35;15.50;85.40
15844;DHT22;50807;52.436;13.346;2023-03-23T03:10:17;15.50;85.40
15844;DHT22;50807;52.436;13.346;2023-03-23T03:10:57;15.50;85.40
15844;DHT22;50807;52.436;13.346;2023-03-23T03:11:33;15.50;85.30
15844;DHT22;50807;52.436;13.346;2023-03-23T03:12:10;15.50;85.30
15844;DHT22;50807;52.436;13.346;2023-03-23T03:12:53;15.50;85.40
15844;DHT22;50807;52.436;13.346;2023-03-23T03:13:34;15.50;85.40
15844;DHT22;50807;52.436;13.346;2023-03-23T03:14:16;15.50;85.40
15844;DHT22;50807;52.436;13.346;2023-03-23T03:14:58;15.50;85.40
15844;DHT22;50807;52.436;13.346;2023-03-23T03:15:40;15.50;85.30
15844;DHT22;50807;52.436;13.346;2023-03-23T03:16:22;15.50;85.30
15844;DHT22;50807;52.436;13.346;2023-03-23T03:17:02;15.50;85.40
15844;DHT22;50807;52.436;13.346;2023-03-23T03:17:40;15.50;85.40
15844;DHT22;50807;52.436;13.346;2023-03-23T03:18:18;15.50;85.40
15844;DHT22;50807;52.436;13.346;2023-03-23T03:18:59;15.50;86.10
15844;DHT22;50807;52.436;13.346;2023-03-23T03:19:35;15.50;85.50
15844;DHT22;50807;52.436;13.346;2023-03-23T03:20:12;15.50;85.50
15844;DHT22;50807;52.436;13.346;2023-03-23T03:20:48;15.50;85.60
15844;DHT22;50807;52.436;13.346;2023-03-23T03:21:23;15.50;85.60
15844;DHT22;50807;52.436;13.346;2023-03-23T03:21:58;15.50;85.70
15844;DHT22;50807;52.436;13.346;2023-03-23T03:22:31;15.50;85.70
15844;DHT22;50807;52.436;13.346;2023-03-23T03:23:03;15.50;85.80
15844;DHT22;50807;52.436;13.346;2023-03-23T03:23:40;15.50;85.80
15844;DHT22;50807;52.436;13.346;2023-03-23T03:24:17;15.50;85.80
15844;DHT22;50807;52.436;13.346;2023-03-23T03:24:51;15.50;85.80
15844;DHT22;50807;52.436;13.346;2023-03-23T03:25:22;15.50;85.80
15844;DHT22;50807;52.436;13.346;2023-03-23T03:25:58;15.50;86.60
15844;DHT22;50807;52.436;13.346;2023-03-23T03:26:32;15.50;86.00
15844;DHT22;50807;52.436;13.346;2023-03-23T03:27:10;15.50;86.00
15844;DHT22;50807;52.436;13.346;2023-03-23T03:27:47;15.50;86.10
15844;DHT22;50807;52.436;13.346;2023-03-23T03:28:20;15.50;86.10
15844;DHT22;50807;52.436;13.346;2023-03-23T03:28:53;15.50;86.10
15844;DHT22;50807;52.436;13.346;2023-03-23T03:29:29;15.50;86.20
15844;DHT22;50807;52.436;13.346;2023-03-23T03:30:05;15.60;86.30
15844;DHT22;50807;52.436;13.346;2023-03-23T03:30:40;15.60;86.30
15844;DHT22;50807;52.436;13.346;2023-03-23T03:31:17;15.60;86.30
15844;DHT22;50807;52.436;13.346;2023-03-23T03:31:51;15.60;86.30
15844;DHT22;50807;52.436;13.346;2023-03-23T03:32:31;15.60;86.30
15844;DHT22;50807;52.436;13.346;2023-03-23T03:33:09;15.60;86.40
15844;DHT22;50807;52.436;13.346;2023-03-23T03:33:41;15.60;86.20
15844;DHT22;50807;52.436;13.346;2023-03-23T03:34:14;15.60;86.20
15844;DHT22;50807;52.436;13.346;2023-03-23T03:34:47;15.60;86.30
15844;DHT22;50807;52.436;13.346;2023-03-23T03:35:23;15.60;86.20
15844;DHT22;50807;52.436;13.346;2023-03-23T03:35:58;15.60;86.30
15844;DHT22;50807;52.436;13.346;2023-03-23T03:36:33;15.60;86.30
15844;DHT22;50807;52.436;13.346;2023-03-23T03:37:05;15.60;86.30
15844;DHT22;50807;52.436;13.346;2023-03-23T03:37:38;15.60;86.20
15844;DHT22;50807;52.436;13.346;2023-03-23T03:38:11;15.60;86.20
15844;DHT22;50807;52.436;13.346;2023-03-23T03:38:43;15.60;86.20
15844;DHT22;50807;52.436;13.346;2023-03-23T03:39:17;15.60;86.20
15844;DHT22;50807;52.436;13.346;2023-03-23T03:39:50;15.60;86.20
15844;DHT22;50807;52.436;13.346;2023-03-23T03:40:22;15.60;86.20
15844;DHT22;50807;52.436;13.346;2023-03-23T03:40:55;15.60;86.20
15844;DHT22;50807;52.436;13.346;2023-03-23T03:41:26;15.60;86.30